Terminal Aerodrome Forecast
Issued by NWS

Home | Current Version | Previous Version | Graphics & Text | Print | Product List | Glossary On
Versions: 1 2 3 4 5 6 7 8 9 10 11 12 13 14 15 16 17 18
549
FTUS43 KBIS 031126
TAFDIK
TAF
KDIK 031126Z 0312/0412 24005KT P6SM BKN070
     FM031300 25005KT P6SM BKN030
     FM031800 30015KT P6SM OVC030
     FM032100 29011KT P6SM BKN060=

USA.gov is the U.S. government's official web portal to all federal, state and local government web resources and services.